sensor_id;sensor_type;location;lat;lon;timestamp;P1;durP1;ratioP1;P2;durP2;ratioP2
11066;SDS011;29763;50.904;5.530;2023-02-11T00:01:38;28.60;;;20.90;;
11066;SDS011;29763;50.904;5.530;2023-02-11T00:04:04;29.53;;;21.97;;
11066;SDS011;29763;50.904;5.530;2023-02-11T00:06:31;32.58;;;21.67;;
11066;SDS011;29763;50.904;5.530;2023-02-11T00:09:00;29.88;;;22.20;;
11066;SDS011;29763;50.904;5.530;2023-02-11T00:11:27;32.53;;;22.80;;
11066;SDS011;29763;50.904;5.530;2023-02-11T00:13:56;34.40;;;24.20;;
11066;SDS011;29763;50.904;5.530;2023-02-11T00:16:26;35.13;;;23.67;;
11066;SDS011;29763;50.904;5.530;2023-02-11T00:18:53;35.20;;;24.37;;
11066;SDS011;29763;50.904;5.530;2023-02-11T00:21:30;36.70;;;24.43;;
11066;SDS011;29763;50.904;5.530;2023-02-11T00:23:56;33.63;;;23.02;;
11066;SDS011;29763;50.904;5.530;2023-02-11T00:26:25;28.15;;;20.42;;
11066;SDS011;29763;50.904;5.530;2023-02-11T00:28:52;33.33;;;21.57;;
11066;SDS011;29763;50.904;5.530;2023-02-11T00:31:19;28.37;;;21.13;;
11066;SDS011;29763;50.904;5.530;2023-02-11T00:33:46;29.40;;;21.20;;
11066;SDS011;29763;50.904;5.530;2023-02-11T00:36:14;29.97;;;20.80;;
11066;SDS011;29763;50.904;5.530;2023-02-11T00:38:42;29.80;;;21.27;;
11066;SDS011;29763;50.904;5.530;2023-02-11T00:41:09;31.63;;;21.37;;
11066;SDS011;29763;50.904;5.530;2023-02-11T00:43:35;28.50;;;19.83;;
11066;SDS011;29763;50.904;5.530;2023-02-11T00:46:01;29.80;;;21.03;;
11066;SDS011;29763;50.904;5.530;2023-02-11T00:48:27;29.53;;;20.00;;
11066;SDS011;29763;50.904;5.530;2023-02-11T00:50:53;30.23;;;20.47;;
11066;SDS011;29763;50.904;5.530;2023-02-11T00:53:18;30.53;;;20.77;;
11066;SDS011;29763;50.904;5.530;2023-02-11T00:55:44;33.70;;;21.63;;
11066;SDS011;29763;50.904;5.530;2023-02-11T00:58:10;31.23;;;20.85;;
11066;SDS011;29763;50.904;5.530;2023-02-11T01:00:36;30.27;;;20.77;;
11066;SDS011;29763;50.904;5.530;2023-02-11T01:03:02;31.13;;;22.20;;
11066;SDS011;29763;50.904;5.530;2023-02-11T01:05:28;27.33;;;21.27;;
11066;SDS011;29763;50.904;5.530;2023-02-11T01:07:53;28.07;;;21.47;;
11066;SDS011;29763;50.904;5.530;2023-02-11T01:10:19;33.40;;;21.63;;
11066;SDS011;29763;50.904;5.530;2023-02-11T01:12:45;30.77;;;21.50;;
11066;SDS011;29763;50.904;5.530;2023-02-11T01:15:13;29.57;;;20.67;;
11066;SDS011;29763;50.904;5.530;2023-02-11T01:17:40;32.90;;;21.63;;
11066;SDS011;29763;50.904;5.530;2023-02-11T01:20:06;29.47;;;20.93;;
11066;SDS011;29763;50.904;5.530;2023-02-11T01:22:36;28.93;;;21.30;;
11066;SDS011;29763;50.904;5.530;2023-02-11T01:25:03;27.47;;;20.13;;
11066;SDS011;29763;50.904;5.530;2023-02-11T01:27:30;28.07;;;20.07;;
11066;SDS011;29763;50.904;5.530;2023-02-11T01:29:57;29.17;;;21.33;;
11066;SDS011;29763;50.904;5.530;2023-02-11T01:32:25;27.80;;;20.40;;
11066;SDS011;29763;50.904;5.530;2023-02-11T01:34:51;29.43;;;21.07;;
11066;SDS011;29763;50.904;5.530;2023-02-11T01:37:16;29.37;;;21.23;;
11066;SDS011;29763;50.904;5.530;2023-02-11T01:39:42;30.47;;;20.40;;
11066;SDS011;29763;50.904;5.530;2023-02-11T01:42:19;28.37;;;20.63;;
11066;SDS011;29763;50.904;5.530;2023-02-11T01:44:50;30.33;;;20.23;;
11066;SDS011;29763;50.904;5.530;2023-02-11T01:47:17;30.83;;;20.77;;
11066;SDS011;29763;50.904;5.530;2023-02-11T01:50:05;27.30;;;20.00;;
11066;SDS011;29763;50.904;5.530;2023-02-11T01:52:34;27.97;;;19.60;;
11066;SDS011;29763;50.904;5.530;2023-02-11T01:55:04;27.10;;;18.63;;
11066;SDS011;29763;50.904;5.530;2023-02-11T01:57:52;26.37;;;18.53;;
11066;SDS011;29763;50.904;5.530;2023-02-11T02:00:34;29.37;;;18.37;;
11066;SDS011;29763;50.904;5.530;2023-02-11T02:03:07;25.60;;;17.90;;
11066;SDS011;29763;50.904;5.530;2023-02-11T02:11:09;25.93;;;16.43;;
11066;SDS011;29763;50.904;5.530;2023-02-11T02:13:35;24.83;;;16.60;;
11066;SDS011;29763;50.904;5.530;2023-02-11T02:16:02;26.07;;;16.50;;
11066;SDS011;29763;50.904;5.530;2023-02-11T02:29:13;24.40;;;15.30;;
11066;SDS011;29763;50.904;5.530;2023-02-11T02:34:22;22.05;;;14.65;;
11066;SDS011;29763;50.904;5.530;2023-02-11T02:37:23;19.50;;;14.13;;
11066;SDS011;29763;50.904;5.530;2023-02-11T02:39:55;22.53;;;15.30;;
11066;SDS011;29763;50.904;5.530;2023-02-11T02:42:23;23.58;;;15.65;;
11066;SDS011;29763;50.904;5.530;2023-02-11T02:44:50;22.60;;;13.90;;
11066;SDS011;29763;50.904;5.530;2023-02-11T02:47:17;22.00;;;14.15;;
11066;SDS011;29763;50.904;5.530;2023-02-11T02:49:43;19.13;;;13.32;;
11066;SDS011;29763;50.904;5.530;2023-02-11T02:52:19;20.50;;;14.17;;
11066;SDS011;29763;50.904;5.530;2023-02-11T02:57:42;22.38;;;13.80;;
11066;SDS011;29763;50.904;5.530;2023-02-11T03:00:57;19.17;;;13.40;;
11066;SDS011;29763;50.904;5.530;2023-02-11T03:06:24;22.15;;;13.18;;
11066;SDS011;29763;50.904;5.530;2023-02-11T03:11:38;20.10;;;12.98;;
11066;SDS011;29763;50.904;5.530;2023-02-11T03:14:05;20.17;;;13.50;;
11066;SDS011;29763;50.904;5.530;2023-02-11T03:16:34;20.40;;;12.47;;
11066;SDS011;29763;50.904;5.530;2023-02-11T03:19:45;18.90;;;12.65;;
11066;SDS011;29763;50.904;5.530;2023-02-11T03:22:02;16.17;;;11.65;;
11066;SDS011;29763;50.904;5.530;2023-02-11T03:24:35;18.53;;;11.90;;
11066;SDS011;29763;50.904;5.530;2023-02-11T03:27:05;17.90;;;11.67;;
11066;SDS011;29763;50.904;5.530;2023-02-11T03:29:38;18.88;;;12.02;;
11066;SDS011;29763;50.904;5.530;2023-02-11T03:37:38;17.67;;;11.33;;
11066;SDS011;29763;50.904;5.530;2023-02-11T03:40:29;17.33;;;11.30;;
11066;SDS011;29763;50.904;5.530;2023-02-11T03:43:00;18.30;;;12.23;;
11066;SDS011;29763;50.904;5.530;2023-02-11T03:45:34;18.42;;;11.50;;
11066;SDS011;29763;50.904;5.530;2023-02-11T03:48:03;18.30;;;11.60;;
11066;SDS011;29763;50.904;5.530;2023-02-11T03:50:39;18.55;;;11.43;;
11066;SDS011;29763;50.904;5.530;2023-02-11T03:53:06;18.73;;;11.15;;
11066;SDS011;29763;50.904;5.530;2023-02-11T03:55:33;19.25;;;11.90;;
11066;SDS011;29763;50.904;5.530;2023-02-11T03:58:02;17.25;;;11.02;;
11066;SDS011;29763;50.904;5.530;2023-02-11T04:00:36;16.80;;;10.90;;
11066;SDS011;29763;50.904;5.530;2023-02-11T04:03:05;21.40;;;11.20;;
11066;SDS011;29763;50.904;5.530;2023-02-11T04:05:31;18.30;;;11.73;;
11066;SDS011;29763;50.904;5.530;2023-02-11T04:07:57;21.23;;;12.40;;
11066;SDS011;29763;50.904;5.530;2023-02-11T04:10:23;19.58;;;12.15;;
11066;SDS011;29763;50.904;5.530;2023-02-11T04:12:49;21.70;;;12.38;;
11066;SDS011;29763;50.904;5.530;2023-02-11T04:15:15;17.98;;;12.32;;
11066;SDS011;29763;50.904;5.530;2023-02-11T04:17:41;20.70;;;12.60;;
11066;SDS011;29763;50.904;5.530;2023-02-11T04:20:07;18.83;;;12.88;;
11066;SDS011;29763;50.904;5.530;2023-02-11T04:22:33;25.50;;;15.85;;
11066;SDS011;29763;50.904;5.530;2023-02-11T04:24:59;21.77;;;13.60;;
11066;SDS011;29763;50.904;5.530;2023-02-11T04:27:25;19.50;;;12.07;;
11066;SDS011;29763;50.904;5.530;2023-02-11T04:29:51;22.67;;;13.10;;
11066;SDS011;29763;50.904;5.530;2023-02-11T04:32:18;23.92;;;13.93;;
11066;SDS011;29763;50.904;5.530;2023-02-11T04:34:43;26.00;;;15.27;;
11066;SDS011;29763;50.904;5.530;2023-02-11T04:37:09;20.38;;;12.82;;
11066;SDS011;29763;50.904;5.530;2023-02-11T04:39:35;23.45;;;13.55;;
11066;SDS011;29763;50.904;5.530;2023-02-11T04:42:01;24.50;;;12.80;;
11066;SDS011;29763;50.904;5.530;2023-02-11T04:44:26;19.75;;;13.10;;
11066;SDS011;29763;50.904;5.530;2023-02-11T04:46:56;25.90;;;14.13;;
11066;SDS011;29763;50.904;5.530;2023-02-11T04:49:22;26.00;;;14.10;;
11066;SDS011;29763;50.904;5.530;2023-02-11T04:51:48;23.33;;;12.70;;
11066;SDS011;29763;50.904;5.530;2023-02-11T04:54:14;26.33;;;14.13;;
11066;SDS011;29763;50.904;5.530;2023-02-11T04:56:40;30.33;;;13.63;;
11066;SDS011;29763;50.904;5.530;2023-02-11T04:59:06;26.40;;;15.98;;
11066;SDS011;29763;50.904;5.530;2023-02-11T05:01:32;30.80;;;16.30;;
11066;SDS011;29763;50.904;5.530;2023-02-11T05:03:58;25.67;;;14.23;;
11066;SDS011;29763;50.904;5.530;2023-02-11T05:06:24;31.00;;;15.90;;
11066;SDS011;29763;50.904;5.530;2023-02-11T05:08:52;28.38;;;16.77;;
11066;SDS011;29763;50.904;5.530;2023-02-11T05:11:19;28.13;;;15.90;;
11066;SDS011;29763;50.904;5.530;2023-02-11T05:13:47;27.48;;;16.70;;
11066;SDS011;29763;50.904;5.530;2023-02-11T05:16:13;23.33;;;14.48;;
11066;SDS011;29763;50.904;5.530;2023-02-11T05:18:40;22.58;;;14.88;;
11066;SDS011;29763;50.904;5.530;2023-02-11T05:21:11;27.15;;;15.23;;
11066;SDS011;29763;50.904;5.530;2023-02-11T05:23:39;29.47;;;16.53;;
11066;SDS011;29763;50.904;5.530;2023-02-11T05:26:06;26.63;;;14.52;;
11066;SDS011;29763;50.904;5.530;2023-02-11T05:28:32;32.15;;;16.35;;
11066;SDS011;29763;50.904;5.530;2023-02-11T05:30:59;23.35;;;14.95;;
11066;SDS011;29763;50.904;5.530;2023-02-11T05:33:25;21.97;;;14.60;;
11066;SDS011;29763;50.904;5.530;2023-02-11T05:35:51;28.33;;;16.73;;
11066;SDS011;29763;50.904;5.530;2023-02-11T05:38:28;27.73;;;17.40;;
11066;SDS011;29763;50.904;5.530;2023-02-11T05:40:54;23.38;;;16.45;;
11066;SDS011;29763;50.904;5.530;2023-02-11T05:43:21;21.52;;;15.10;;
11066;SDS011;29763;50.904;5.530;2023-02-11T05:45:46;22.92;;;15.63;;
11066;SDS011;29763;50.904;5.530;2023-02-11T05:48:12;23.00;;;14.82;;
11066;SDS011;29763;50.904;5.530;2023-02-11T05:50:38;21.25;;;14.38;;
11066;SDS011;29763;50.904;5.530;2023-02-11T05:53:04;27.15;;;14.90;;
11066;SDS011;29763;50.904;5.530;2023-02-11T05:55:33;23.80;;;14.60;;
11066;SDS011;29763;50.904;5.530;2023-02-11T05:57:59;23.67;;;14.57;;
11066;SDS011;29763;50.904;5.530;2023-02-11T06:00:25;23.87;;;15.73;;
11066;SDS011;29763;50.904;5.530;2023-02-11T06:02:51;26.52;;;15.63;;
11066;SDS011;29763;50.904;5.530;2023-02-11T06:05:17;26.73;;;16.30;;
11066;SDS011;29763;50.904;5.530;2023-02-11T06:07:43;23.45;;;16.27;;
11066;SDS011;29763;50.904;5.530;2023-02-11T06:10:10;26.33;;;16.27;;
11066;SDS011;29763;50.904;5.530;2023-02-11T06:12:36;26.30;;;17.08;;
11066;SDS011;29763;50.904;5.530;2023-02-11T06:15:02;27.33;;;16.75;;
11066;SDS011;29763;50.904;5.530;2023-02-11T06:17:29;29.47;;;17.27;;
11066;SDS011;29763;50.904;5.530;2023-02-11T06:19:58;30.47;;;16.53;;
11066;SDS011;29763;50.904;5.530;2023-02-11T06:22:26;36.38;;;18.10;;
11066;SDS011;29763;50.904;5.530;2023-02-11T06:24:52;30.03;;;16.30;;
11066;SDS011;29763;50.904;5.530;2023-02-11T06:27:18;27.00;;;17.02;;
11066;SDS011;29763;50.904;5.530;2023-02-11T06:29:45;28.43;;;16.97;;
11066;SDS011;29763;50.904;5.530;2023-02-11T06:32:11;29.63;;;17.93;;
11066;SDS011;29763;50.904;5.530;2023-02-11T06:34:37;32.83;;;17.13;;
11066;SDS011;29763;50.904;5.530;2023-02-11T06:37:03;30.43;;;17.07;;
11066;SDS011;29763;50.904;5.530;2023-02-11T06:39:29;27.03;;;17.43;;
11066;SDS011;29763;50.904;5.530;2023-02-11T06:41:55;29.10;;;18.50;;
11066;SDS011;29763;50.904;5.530;2023-02-11T06:44:21;32.85;;;19.00;;
11066;SDS011;29763;50.904;5.530;2023-02-11T06:46:47;34.55;;;20.13;;
11066;SDS011;29763;50.904;5.530;2023-02-11T06:49:13;34.80;;;19.48;;
11066;SDS011;29763;50.904;5.530;2023-02-11T06:51:42;32.50;;;19.60;;
11066;SDS011;29763;50.904;5.530;2023-02-11T06:54:07;32.77;;;19.40;;
11066;SDS011;29763;50.904;5.530;2023-02-11T06:56:37;34.50;;;19.87;;
11066;SDS011;29763;50.904;5.530;2023-02-11T06:59:04;33.35;;;20.08;;
11066;SDS011;29763;50.904;5.530;2023-02-11T07:01:30;35.87;;;20.93;;
11066;SDS011;29763;50.904;5.530;2023-02-11T07:03:56;38.57;;;21.73;;
11066;SDS011;29763;50.904;5.530;2023-02-11T07:06:22;35.80;;;21.80;;
11066;SDS011;29763;50.904;5.530;2023-02-11T07:08:51;34.67;;;20.73;;
11066;SDS011;29763;50.904;5.530;2023-02-11T07:11:19;38.77;;;21.33;;
11066;SDS011;29763;50.904;5.530;2023-02-11T07:13:48;35.13;;;22.40;;
11066;SDS011;29763;50.904;5.530;2023-02-11T07:16:15;41.57;;;22.10;;
11066;SDS011;29763;50.904;5.530;2023-02-11T07:18:43;36.70;;;22.30;;
11066;SDS011;29763;50.904;5.530;2023-02-11T07:21:10;39.20;;;23.40;;
11066;SDS011;29763;50.904;5.530;2023-02-11T07:23:37;42.10;;;23.58;;
11066;SDS011;29763;50.904;5.530;2023-02-11T07:26:09;38.17;;;23.53;;
11066;SDS011;29763;50.904;5.530;2023-02-11T07:28:37;44.30;;;23.30;;
11066;SDS011;29763;50.904;5.530;2023-02-11T07:31:17;43.00;;;24.40;;
11066;SDS011;29763;50.904;5.530;2023-02-11T07:33:44;43.37;;;24.57;;
11066;SDS011;29763;50.904;5.530;2023-02-11T07:36:11;47.23;;;24.50;;
11066;SDS011;29763;50.904;5.530;2023-02-11T07:38:43;42.90;;;24.27;;
11066;SDS011;29763;50.904;5.530;2023-02-11T07:41:10;45.70;;;24.38;;
11066;SDS011;29763;50.904;5.530;2023-02-11T07:43:37;44.87;;;24.93;;
11066;SDS011;29763;50.904;5.530;2023-02-11T07:46:05;47.30;;;26.77;;
11066;SDS011;29763;50.904;5.530;2023-02-11T07:48:32;49.53;;;25.17;;
11066;SDS011;29763;50.904;5.530;2023-02-11T07:51:06;47.90;;;25.00;;
11066;SDS011;29763;50.904;5.530;2023-02-11T07:53:36;45.93;;;24.77;;
11066;SDS011;29763;50.904;5.530;2023-02-11T07:56:03;48.23;;;25.27;;
11066;SDS011;29763;50.904;5.530;2023-02-11T07:58:30;47.83;;;26.20;;
11066;SDS011;29763;50.904;5.530;2023-02-11T08:01:10;50.80;;;26.27;;
11066;SDS011;29763;50.904;5.530;2023-02-11T08:03:49;49.93;;;25.70;;
11066;SDS011;29763;50.904;5.530;2023-02-11T08:06:15;46.38;;;25.25;;
11066;SDS011;29763;50.904;5.530;2023-02-11T08:08:44;46.10;;;26.00;;
11066;SDS011;29763;50.904;5.530;2023-02-11T08:13:44;50.77;;;26.47;;
11066;SDS011;29763;50.904;5.530;2023-02-11T08:16:20;48.67;;;26.07;;
11066;SDS011;29763;50.904;5.530;2023-02-11T08:18:48;51.13;;;26.57;;
11066;SDS011;29763;50.904;5.530;2023-02-11T08:21:15;50.93;;;27.70;;
11066;SDS011;29763;50.904;5.530;2023-02-11T08:23:42;50.23;;;27.63;;
11066;SDS011;29763;50.904;5.530;2023-02-11T08:26:19;46.37;;;27.47;;
11066;SDS011;29763;50.904;5.530;2023-02-11T08:28:49;49.57;;;27.40;;
11066;SDS011;29763;50.904;5.530;2023-02-11T08:33:49;50.37;;;26.70;;
11066;SDS011;29763;50.904;5.530;2023-02-11T08:36:17;49.13;;;26.07;;
11066;SDS011;29763;50.904;5.530;2023-02-11T08:38:48;51.77;;;27.60;;
11066;SDS011;29763;50.904;5.530;2023-02-11T08:41:14;51.30;;;27.43;;
11066;SDS011;29763;50.904;5.530;2023-02-11T08:43:43;52.03;;;28.07;;
11066;SDS011;29763;50.904;5.530;2023-02-11T08:46:11;46.27;;;27.43;;
11066;SDS011;29763;50.904;5.530;2023-02-11T08:48:42;51.23;;;28.23;;
11066;SDS011;29763;50.904;5.530;2023-02-11T08:51:09;54.78;;;27.88;;
11066;SDS011;29763;50.904;5.530;2023-02-11T08:53:38;53.42;;;30.17;;
11066;SDS011;29763;50.904;5.530;2023-02-11T08:56:04;52.73;;;28.37;;
11066;SDS011;29763;50.904;5.530;2023-02-11T08:58:30;52.83;;;28.67;;
11066;SDS011;29763;50.904;5.530;2023-02-11T09:00:57;54.73;;;29.90;;
11066;SDS011;29763;50.904;5.530;2023-02-11T09:03:23;54.43;;;29.00;;
11066;SDS011;29763;50.904;5.530;2023-02-11T09:05:49;53.65;;;29.27;;
11066;SDS011;29763;50.904;5.530;2023-02-11T09:08:17;56.37;;;30.50;;
11066;SDS011;29763;50.904;5.530;2023-02-11T09:10:44;54.83;;;31.20;;
11066;SDS011;29763;50.904;5.530;2023-02-11T09:13:10;55.17;;;30.70;;
11066;SDS011;29763;50.904;5.530;2023-02-11T09:15:36;53.70;;;30.47;;
11066;SDS011;29763;50.904;5.530;2023-02-11T09:18:05;56.23;;;31.03;;
11066;SDS011;29763;50.904;5.530;2023-02-11T09:20:31;53.80;;;29.83;;
11066;SDS011;29763;50.904;5.530;2023-02-11T09:23:00;58.57;;;31.13;;
11066;SDS011;29763;50.904;5.530;2023-02-11T09:25:26;54.80;;;31.70;;
11066;SDS011;29763;50.904;5.530;2023-02-11T09:27:52;54.10;;;31.47;;
11066;SDS011;29763;50.904;5.530;2023-02-11T09:30:23;57.73;;;31.50;;
11066;SDS011;29763;50.904;5.530;2023-02-11T09:32:49;53.55;;;30.70;;
11066;SDS011;29763;50.904;5.530;2023-02-11T09:35:15;57.20;;;31.77;;
11066;SDS011;29763;50.904;5.530;2023-02-11T09:37:43;55.37;;;31.07;;
11066;SDS011;29763;50.904;5.530;2023-02-11T09:40:09;59.40;;;32.20;;
11066;SDS011;29763;50.904;5.530;2023-02-11T09:42:44;57.22;;;31.20;;
11066;SDS011;29763;50.904;5.530;2023-02-11T09:45:21;54.67;;;32.07;;
11066;SDS011;29763;50.904;5.530;2023-02-11T09:47:51;62.63;;;31.90;;
11066;SDS011;29763;50.904;5.530;2023-02-11T09:50:28;58.60;;;32.33;;
11066;SDS011;29763;50.904;5.530;2023-02-11T09:53:03;56.23;;;30.77;;
11066;SDS011;29763;50.904;5.530;2023-02-11T09:55:53;59.97;;;33.00;;
11066;SDS011;29763;50.904;5.530;2023-02-11T09:58:35;52.47;;;30.03;;
11066;SDS011;29763;50.904;5.530;2023-02-11T10:12:15;55.70;;;31.27;;
11066;SDS011;29763;50.904;5.530;2023-02-11T10:15:04;54.33;;;31.77;;
11066;SDS011;29763;50.904;5.530;2023-02-11T10:17:37;55.57;;;31.70;;
11066;SDS011;29763;50.904;5.530;2023-02-11T10:20:14;59.83;;;32.40;;
11066;SDS011;29763;50.904;5.530;2023-02-11T10:22:59;59.17;;;33.70;;
11066;SDS011;29763;50.904;5.530;2023-02-11T10:25:52;63.13;;;33.00;;
11066;SDS011;29763;50.904;5.530;2023-02-11T10:28:27;56.58;;;31.55;;
11066;SDS011;29763;50.904;5.530;2023-02-11T10:36:10;58.42;;;32.75;;
11066;SDS011;29763;50.904;5.530;2023-02-11T10:38:37;56.60;;;32.70;;
11066;SDS011;29763;50.904;5.530;2023-02-11T10:41:03;58.30;;;33.15;;
11066;SDS011;29763;50.904;5.530;2023-02-11T10:43:30;58.58;;;33.17;;
11066;SDS011;29763;50.904;5.530;2023-02-11T10:46:01;62.43;;;33.27;;
11066;SDS011;29763;50.904;5.530;2023-02-11T10:51:17;60.03;;;32.10;;
11066;SDS011;29763;50.904;5.530;2023-02-11T10:53:46;58.42;;;31.85;;
11066;SDS011;29763;50.904;5.530;2023-02-11T10:56:20;60.20;;;32.83;;
11066;SDS011;29763;50.904;5.530;2023-02-11T10:58:56;60.15;;;33.05;;
11066;SDS011;29763;50.904;5.530;2023-02-11T11:01:37;61.30;;;33.40;;
11066;SDS011;29763;50.904;5.530;2023-02-11T11:06:54;65.88;;;36.47;;
11066;SDS011;29763;50.904;5.530;2023-02-11T11:09:37;60.50;;;33.73;;
11066;SDS011;29763;50.904;5.530;2023-02-11T11:12:37;61.57;;;32.63;;
11066;SDS011;29763;50.904;5.530;2023-02-11T11:17:44;61.42;;;32.63;;
11066;SDS011;29763;50.904;5.530;2023-02-11T11:20:27;60.35;;;32.53;;
11066;SDS011;29763;50.904;5.530;2023-02-11T11:23:17;63.63;;;32.45;;
11066;SDS011;29763;50.904;5.530;2023-02-11T11:25:45;59.00;;;32.67;;
11066;SDS011;29763;50.904;5.530;2023-02-11T11:28:40;58.88;;;30.80;;
11066;SDS011;29763;50.904;5.530;2023-02-11T11:31:13;57.65;;;31.05;;
11066;SDS011;29763;50.904;5.530;2023-02-11T11:33:43;61.22;;;31.90;;
11066;SDS011;29763;50.904;5.530;2023-02-11T11:36:11;57.65;;;32.90;;
11066;SDS011;29763;50.904;5.530;2023-02-11T11:38:43;61.25;;;33.33;;
11066;SDS011;29763;50.904;5.530;2023-02-11T11:41:16;56.72;;;32.17;;
11066;SDS011;29763;50.904;5.530;2023-02-11T11:46:41;58.47;;;31.70;;
11066;SDS011;29763;50.904;5.530;2023-02-11T11:49:32;62.00;;;32.60;;
11066;SDS011;29763;50.904;5.530;2023-02-11T11:54:50;62.83;;;34.10;;
11066;SDS011;29763;50.904;5.530;2023-02-11T11:57:24;64.05;;;33.10;;
11066;SDS011;29763;50.904;5.530;2023-02-11T11:59:53;61.60;;;33.45;;
11066;SDS011;29763;50.904;5.530;2023-02-11T12:05:25;60.33;;;33.10;;
11066;SDS011;29763;50.904;5.530;2023-02-11T12:10:56;62.50;;;33.15;;
11066;SDS011;29763;50.904;5.530;2023-02-11T12:13:30;62.13;;;31.80;;
11066;SDS011;29763;50.904;5.530;2023-02-11T12:16:10;60.55;;;31.33;;
11066;SDS011;29763;50.904;5.530;2023-02-11T12:19:12;63.08;;;32.35;;
11066;SDS011;29763;50.904;5.530;2023-02-11T12:22:09;63.22;;;32.45;;
11066;SDS011;29763;50.904;5.530;2023-02-11T12:30:12;61.10;;;32.58;;
11066;SDS011;29763;50.904;5.530;2023-02-11T12:41:03;64.95;;;33.10;;
11066;SDS011;29763;50.904;5.530;2023-02-11T12:43:41;62.90;;;32.60;;
11066;SDS011;29763;50.904;5.530;2023-02-11T12:46:17;60.28;;;32.83;;
11066;SDS011;29763;50.904;5.530;2023-02-11T13:00:21;63.13;;;32.37;;
11066;SDS011;29763;50.904;5.530;2023-02-11T13:05:36;57.05;;;31.30;;
11066;SDS011;29763;50.904;5.530;2023-02-11T13:08:10;61.63;;;31.92;;
11066;SDS011;29763;50.904;5.530;2023-02-11T13:10:37;61.97;;;33.97;;
11066;SDS011;29763;50.904;5.530;2023-02-11T13:13:12;71.25;;;36.70;;
11066;SDS011;29763;50.904;5.530;2023-02-11T13:16:02;63.72;;;31.42;;
11066;SDS011;29763;50.904;5.530;2023-02-11T13:21:48;57.38;;;32.53;;
11066;SDS011;29763;50.904;5.530;2023-02-11T13:36:26;57.30;;;32.83;;
11066;SDS011;29763;50.904;5.530;2023-02-11T13:38:27;61.05;;;33.65;;
11066;SDS011;29763;50.904;5.530;2023-02-11T13:41:00;58.30;;;32.97;;
11066;SDS011;29763;50.904;5.530;2023-02-11T13:43:28;59.17;;;31.85;;
11066;SDS011;29763;50.904;5.530;2023-02-11T13:46:04;55.80;;;32.90;;
11066;SDS011;29763;50.904;5.530;2023-02-11T13:48:53;59.80;;;32.85;;
11066;SDS011;29763;50.904;5.530;2023-02-11T13:51:39;59.55;;;33.20;;
11066;SDS011;29763;50.904;5.530;2023-02-11T13:54:06;59.20;;;33.88;;
11066;SDS011;29763;50.904;5.530;2023-02-11T13:56:43;66.20;;;35.35;;
11066;SDS011;29763;50.904;5.530;2023-02-11T13:59:56;65.60;;;33.65;;
11066;SDS011;29763;50.904;5.530;2023-02-11T14:02:04;59.72;;;32.80;;
11066;SDS011;29763;50.904;5.530;2023-02-11T14:10:51;58.83;;;32.40;;
11066;SDS011;29763;50.904;5.530;2023-02-11T14:13:23;56.88;;;32.38;;
11066;SDS011;29763;50.904;5.530;2023-02-11T14:16:21;53.13;;;31.15;;
11066;SDS011;29763;50.904;5.530;2023-02-11T14:24:43;58.83;;;32.65;;
11066;SDS011;29763;50.904;5.530;2023-02-11T14:29:18;52.45;;;32.35;;
11066;SDS011;29763;50.904;5.530;2023-02-11T14:31:48;61.95;;;33.58;;
11066;SDS011;29763;50.904;5.530;2023-02-11T14:42:50;55.38;;;32.67;;
11066;SDS011;29763;50.904;5.530;2023-02-11T14:45:19;59.40;;;33.45;;
11066;SDS011;29763;50.904;5.530;2023-02-11T14:47:54;55.55;;;32.58;;
11066;SDS011;29763;50.904;5.530;2023-02-11T14:50:37;55.45;;;31.02;;
11066;SDS011;29763;50.904;5.530;2023-02-11T14:53:14;59.35;;;32.75;;
11066;SDS011;29763;50.904;5.530;2023-02-11T14:55:43;59.38;;;34.22;;
11066;SDS011;29763;50.904;5.530;2023-02-11T14:58:16;54.88;;;31.63;;
11066;SDS011;29763;50.904;5.530;2023-02-11T15:00:46;55.97;;;32.20;;
11066;SDS011;29763;50.904;5.530;2023-02-11T15:03:29;51.10;;;32.08;;
11066;SDS011;29763;50.904;5.530;2023-02-11T15:08:28;60.20;;;31.95;;
11066;SDS011;29763;50.904;5.530;2023-02-11T15:10:55;57.45;;;32.28;;
11066;SDS011;29763;50.904;5.530;2023-02-11T15:13:23;60.03;;;33.60;;
11066;SDS011;29763;50.904;5.530;2023-02-11T15:16:04;57.90;;;33.05;;
11066;SDS011;29763;50.904;5.530;2023-02-11T15:18:39;55.80;;;32.25;;
11066;SDS011;29763;50.904;5.530;2023-02-11T15:21:07;58.55;;;32.47;;
11066;SDS011;29763;50.904;5.530;2023-02-11T15:23:34;54.63;;;32.75;;
11066;SDS011;29763;50.904;5.530;2023-02-11T15:26:01;57.25;;;33.33;;
11066;SDS011;29763;50.904;5.530;2023-02-11T15:28:36;58.58;;;30.77;;
11066;SDS011;29763;50.904;5.530;2023-02-11T15:31:12;54.75;;;33.83;;
11066;SDS011;29763;50.904;5.530;2023-02-11T15:33:43;58.20;;;33.97;;
11066;SDS011;29763;50.904;5.530;2023-02-11T15:36:10;57.10;;;33.05;;
11066;SDS011;29763;50.904;5.530;2023-02-11T15:38:37;57.55;;;32.78;;
11066;SDS011;29763;50.904;5.530;2023-02-11T15:41:04;61.90;;;33.50;;
11066;SDS011;29763;50.904;5.530;2023-02-11T15:43:47;57.55;;;33.60;;
11066;SDS011;29763;50.904;5.530;2023-02-11T15:46:17;56.72;;;32.33;;
11066;SDS011;29763;50.904;5.530;2023-02-11T15:48:49;57.05;;;32.63;;
11066;SDS011;29763;50.904;5.530;2023-02-11T15:51:22;56.05;;;32.47;;
11066;SDS011;29763;50.904;5.530;2023-02-11T15:53:54;56.13;;;32.42;;
11066;SDS011;29763;50.904;5.530;2023-02-11T15:56:30;61.75;;;34.83;;
11066;SDS011;29763;50.904;5.530;2023-02-11T16:01:39;52.28;;;32.08;;
11066;SDS011;29763;50.904;5.530;2023-02-11T16:04:16;56.75;;;32.70;;
11066;SDS011;29763;50.904;5.530;2023-02-11T16:06:44;60.25;;;34.90;;
11066;SDS011;29763;50.904;5.530;2023-02-11T16:19:23;55.53;;;31.90;;
11066;SDS011;29763;50.904;5.530;2023-02-11T16:21:51;57.77;;;33.23;;
11066;SDS011;29763;50.904;5.530;2023-02-11T16:24:31;59.97;;;33.55;;
11066;SDS011;29763;50.904;5.530;2023-02-11T16:27:00;55.38;;;32.88;;
11066;SDS011;29763;50.904;5.530;2023-02-11T16:29:32;57.47;;;33.10;;
11066;SDS011;29763;50.904;5.530;2023-02-11T16:32:08;59.55;;;33.17;;
11066;SDS011;29763;50.904;5.530;2023-02-11T16:34:43;54.85;;;32.85;;
11066;SDS011;29763;50.904;5.530;2023-02-11T16:37:09;51.97;;;33.28;;
11066;SDS011;29763;50.904;5.530;2023-02-11T16:39:35;55.13;;;31.70;;
11066;SDS011;29763;50.904;5.530;2023-02-11T16:42:04;53.15;;;31.50;;
11066;SDS011;29763;50.904;5.530;2023-02-11T16:44:35;54.03;;;31.75;;
11066;SDS011;29763;50.904;5.530;2023-02-11T16:47:02;48.35;;;30.83;;
11066;SDS011;29763;50.904;5.530;2023-02-11T16:49:34;50.00;;;30.27;;
11066;SDS011;29763;50.904;5.530;2023-02-11T16:52:05;53.00;;;31.42;;
11066;SDS011;29763;50.904;5.530;2023-02-11T16:54:39;44.83;;;29.55;;
11066;SDS011;29763;50.904;5.530;2023-02-11T16:57:22;47.42;;;29.67;;
11066;SDS011;29763;50.904;5.530;2023-02-11T16:59:52;51.58;;;31.15;;
11066;SDS011;29763;50.904;5.530;2023-02-11T17:02:25;50.45;;;31.52;;
11066;SDS011;29763;50.904;5.530;2023-02-11T17:04:57;49.70;;;30.38;;
11066;SDS011;29763;50.904;5.530;2023-02-11T17:07:26;48.85;;;29.25;;
11066;SDS011;29763;50.904;5.530;2023-02-11T17:09:52;49.00;;;30.40;;
11066;SDS011;29763;50.904;5.530;2023-02-11T17:12:19;50.55;;;30.40;;
11066;SDS011;29763;50.904;5.530;2023-02-11T17:14:45;45.33;;;29.30;;
11066;SDS011;29763;50.904;5.530;2023-02-11T17:17:11;52.00;;;31.80;;